Hundvaag 1 weather for Nov 2004
Month no. 209
Obs.
Da.
Temp. Dew Point Precip. Wind
Speed
Wind gusts Cloud cover Press. Humidity Wind dir. Sunny OPT
01.11.2004 9,7   1,5 7,0   0 1016,3 94,0 315,0   60,0 %
02.11.2004 5,5   0,4 3,0   10 1020,1 100,0   1 85,0 %
03.11.2004 9,1   0,0 2,0   0 1017,3 93,0     62,5 %
04.11.2004 10,3   5,6 15,0   0 1011,3 88,0 180,0   52,5 %
05.11.2004 7,9   15,5 22,0   0 1007,9 87,0 315,0   35,0 %
06.11.2004 6,5   3,0 10,0   10 1016,0 81,0 337,5 1 77,5 %
07.11.2004 6,3   0,0 8,0   0 1017,4 93,0 157,5   55,0 %
08.11.2004 8,3   4,2 1,0   0 1014,6 93,0     60,0 %
09.11.2004 9,9   0,1 12,0   0 1014,0 94,0 180,0   55,0 %
10.11.2004 4,8   1,5 0,0   2 1013,8 87,0     62,5 %
11.11.2004 5,6   0,0 9,0   0 1014,4 93,0 157,5   55,0 %
12.11.2004 11,1   18,5 23,0   0 1003,9 94,0 247,5 1 35,0 %
13.11.2004 1,1   4,5 31,0   3 1017,2 92,0 0,0 1 40,0 %
14.11.2004 2,6   1,6 5,0   0 1023,2 93,0 135,0   55,0 %
15.11.2004 10,6   10,5 22,0   0 1009,5 88,0 270,0   42,5 %
16.11.2004 4,6   3,3 8,0   3 1014,6 81,0 337,5 1 57,5 %
17.11.2004 0,2   1,0 7,0   0 1013,2 100,0 112,5   52,5 %
18.11.2004 3,6   8,4 35,0   2 1003,1 65,0 337,5   35,0 %
19.11.2004 1,0   3,2 3,0   0 1007,5 83,0   1 52,5 %
20.11.2004 1,6   4,0 9,0   7 1012,1 81,0 0,0 1 65,0 %
21.11.2004 -1,4   0,0 3,0   10 1017,2 91,0 135,0 1 77,5 %
22.11.2004 4,1   3,5 23,0   0 999,8 81,0 157,5   40,0 %
23.11.2004 3,7   7,2 12,0   10 1015,4 75,0 0,0 1 70,0 %
24.11.2004 4,3   0,0 12,0   0 1021,4 70,0 135,0   50,0 %
25.11.2004 9,2   16,7 6,0   0 1016,1 100,0 270,0   47,5 %
26.11.2004 9,0   7,5 12,0   0 1010,1 93,0 157,5   50,0 %
27.11.2004 6,7   12,3 8,0   1 1011,3 87,0 337,5   47,5 %
28.11.2004 4,8   16,2 2,0   5 1011,9 93,0   1 57,5 %
29.11.2004 4,5   1,4 7,0   3 1013,7 81,0 0,0   62,5 %
30.11.2004 6,4   0,0 10,0   0 1012,1 87,0 180,0   55,0 %
                       
Avrg/Sum 5,7   151,6 10,9   2,2 1013,2 87,9 185,6 10 55,1 %